createdAt,value
2022-09-07T00:00:50.048Z,83.60
2022-09-07T00:04:32.191Z,83.50
2022-09-07T00:08:15.811Z,83.60
2022-09-07T00:11:57.830Z,83.60
2022-09-07T00:15:40.524Z,83.80
2022-09-07T00:19:22.942Z,83.80
2022-09-07T00:23:04.995Z,84.10
2022-09-07T00:26:47.066Z,84.30
2022-09-07T00:30:29.035Z,84.50
2022-09-07T00:34:11.118Z,84.50
2022-09-07T00:37:53.106Z,84.20
2022-09-07T00:41:35.136Z,84.10
2022-09-07T00:45:21.335Z,84.00
2022-09-07T00:49:16.557Z,84.10
2022-09-07T00:53:05.129Z,84.70
2022-09-07T00:56:49.142Z,84.20
2022-09-07T01:00:31.663Z,84.30
2022-09-07T01:04:15.185Z,84.20
2022-09-07T01:07:58.379Z,84.20
2022-09-07T01:11:41.054Z,84.00
2022-09-07T01:15:27.727Z,84.10
2022-09-07T01:19:35.948Z,84.10
2022-09-07T01:23:39.503Z,84.50
2022-09-07T01:27:36.998Z,84.80
2022-09-07T01:36:18.181Z,84.30
2022-09-07T01:40:05.992Z,83.50
2022-09-07T01:44:15.311Z,83.60
2022-09-07T01:48:01.310Z,84.20
2022-09-07T01:51:47.718Z,83.50
2022-09-07T01:55:59.302Z,83.80
2022-09-07T01:59:48.867Z,84.30
2022-09-07T02:03:37.043Z,84.20
2022-09-07T02:08:01.404Z,84.40
2022-09-07T02:11:48.529Z,85.00
2022-09-07T02:15:47.286Z,84.60
2022-09-07T02:19:35.879Z,85.00
2022-09-07T02:23:22.630Z,84.30
2022-09-07T02:27:27.233Z,84.20
2022-09-07T02:31:09.695Z,84.60
2022-09-07T02:34:51.813Z,83.80
2022-09-07T02:38:35.245Z,83.90
2022-09-07T02:42:17.246Z,83.80
2022-09-07T02:46:36.880Z,83.80
2022-09-07T02:50:47.776Z,84.60
2022-09-07T02:55:02.447Z,84.40
2022-09-07T02:59:03.268Z,85.00
2022-09-07T03:03:04.047Z,84.50
2022-09-07T03:07:00.583Z,85.10
2022-09-07T03:10:44.021Z,84.60
2022-09-07T03:14:27.067Z,84.40
2022-09-07T03:18:09.307Z,84.40
2022-09-07T03:21:51.380Z,84.30
2022-09-07T03:25:33.444Z,84.20
2022-09-07T03:29:16.271Z,84.30
2022-09-07T03:32:58.352Z,84.20
2022-09-07T03:36:40.646Z,84.30
2022-09-07T03:49:04.289Z,85.40
2022-09-07T03:52:46.297Z,84.10
2022-09-07T03:56:29.630Z,84.20
2022-09-07T04:00:12.426Z,84.30
2022-09-07T04:04:02.014Z,84.50
2022-09-07T04:12:47.365Z,85.40
2022-09-07T04:16:29.972Z,84.40
2022-09-07T04:20:12.108Z,84.40
2022-09-07T04:23:54.511Z,84.40
2022-09-07T04:27:36.603Z,84.70
2022-09-07T04:31:19.380Z,84.70
2022-09-07T04:35:01.474Z,84.70
2022-09-07T04:38:43.951Z,84.90
2022-09-07T04:42:26.032Z,84.80
2022-09-07T04:46:19.983Z,85.20
2022-09-07T04:50:02.059Z,85.00
2022-09-07T04:53:47.235Z,84.80
2022-09-07T04:57:29.257Z,84.80
2022-09-07T05:01:14.278Z,85.00
2022-09-07T05:04:59.431Z,85.10
2022-09-07T05:08:47.640Z,85.20
2022-09-07T05:12:29.708Z,85.20
2022-09-07T05:16:17.859Z,85.30
2022-09-07T05:19:59.897Z,85.30
2022-09-07T05:23:43.641Z,85.30
2022-09-07T05:27:26.135Z,85.30
2022-09-07T05:34:58.479Z,85.20
2022-09-07T05:38:40.928Z,85.10
2022-09-07T05:43:25.862Z,84.90
2022-09-07T05:47:07.976Z,85.50
2022-09-07T05:50:53.459Z,85.00
2022-09-07T05:54:35.624Z,84.70
2022-09-07T05:58:18.501Z,84.60
2022-09-07T06:02:00.672Z,84.50
2022-09-07T06:05:42.967Z,84.40
2022-09-07T06:09:28.520Z,84.50
2022-09-07T06:13:12.432Z,84.60
2022-09-07T06:16:54.475Z,84.70
2022-09-07T06:20:36.601Z,86.60
2022-09-07T06:24:18.677Z,88.30
2022-09-07T06:28:00.746Z,89.00
2022-09-07T06:35:55.948Z,90.10
2022-09-07T06:39:38.084Z,90.10
2022-09-07T06:43:20.345Z,90.30
2022-09-07T06:47:03.182Z,89.80
2022-09-07T06:50:54.619Z,90.10
2022-09-07T06:58:42.338Z,89.50
2022-09-07T07:02:24.548Z,88.60
2022-09-07T07:06:07.113Z,87.60
2022-09-07T07:09:50.272Z,86.50
2022-09-07T07:13:32.539Z,83.90
2022-09-07T07:17:14.724Z,77.90
2022-09-07T07:20:56.727Z,84.70
2022-09-07T07:24:38.789Z,85.30
2022-09-07T07:32:29.539Z,83.60
2022-09-07T07:36:14.424Z,82.80
2022-09-07T07:44:00.640Z,80.00
2022-09-07T07:47:42.962Z,78.20
2022-09-07T07:51:25.066Z,77.10
2022-09-07T07:59:15.055Z,75.70
2022-09-07T08:03:03.947Z,73.90
2022-09-07T08:06:46.031Z,70.60
2022-09-07T08:10:30.518Z,69.80
2022-09-07T08:14:12.474Z,70.40
2022-09-07T08:17:54.458Z,68.60
2022-09-07T08:21:36.578Z,65.80
2022-09-07T08:25:19.323Z,67.80
2022-09-07T08:29:01.356Z,71.30
2022-09-07T08:32:43.436Z,71.90
2022-09-07T08:36:25.473Z,69.80
2022-09-07T08:40:08.577Z,69.90
2022-09-07T08:44:02.842Z,66.90
2022-09-07T08:47:50.708Z,65.80
2022-09-07T08:51:47.149Z,66.30
2022-09-07T08:55:33.627Z,67.60
2022-09-07T08:59:22.753Z,67.70
2022-09-07T09:07:16.725Z,71.20
2022-09-07T09:11:04.281Z,81.20
2022-09-07T09:15:03.561Z,84.30
2022-09-07T09:19:02.726Z,79.10
2022-09-07T09:22:45.297Z,72.90
2022-09-07T09:26:29.136Z,76.30
2022-09-07T09:30:17.273Z,69.50
2022-09-07T09:34:25.298Z,66.60
2022-09-07T09:38:50.953Z,62.30
2022-09-07T09:42:35.477Z,59.90
2022-09-07T09:46:27.360Z,61.60
2022-09-07T09:54:37.374Z,67.30
2022-09-07T10:06:38.268Z,67.70
2022-09-07T10:10:20.520Z,72.40
2022-09-07T10:14:04.515Z,71.10
2022-09-07T10:17:49.974Z,70.30
2022-09-07T10:21:32.602Z,70.30
2022-09-07T10:25:39.860Z,70.70
2022-09-07T10:29:31.451Z,74.60
2022-09-07T10:33:32.250Z,78.30
2022-09-07T10:37:42.472Z,75.30
2022-09-07T10:41:45.095Z,67.80
2022-09-07T10:45:45.988Z,62.60
2022-09-07T11:07:36.335Z,61.60
2022-09-07T11:12:07.568Z,63.30
2022-09-07T11:15:54.994Z,62.50
2022-09-07T11:19:49.430Z,61.30
2022-09-07T11:24:11.367Z,60.30
2022-09-07T11:27:59.602Z,56.60
2022-09-07T11:31:54.126Z,59.30
2022-09-07T11:35:51.792Z,56.70
2022-09-07T11:39:54.167Z,57.30
2022-09-07T11:43:41.993Z,53.60
2022-09-07T11:47:45.815Z,56.10
2022-09-07T11:51:46.314Z,53.10
2022-09-07T11:55:34.109Z,51.60
2022-09-07T11:59:19.186Z,53.90
2022-09-07T12:03:13.310Z,54.50
2022-09-07T12:07:27.459Z,52.30
2022-09-07T12:11:28.466Z,53.80
2022-09-07T12:15:36.385Z,56.90
2022-09-07T12:19:28.568Z,56.30
2022-09-07T12:23:19.690Z,56.40
2022-09-07T12:27:03.139Z,57.00
2022-09-07T12:31:04.637Z,57.40
2022-09-07T12:34:54.859Z,54.00
2022-09-07T12:39:02.800Z,55.60
2022-09-07T12:42:47.153Z,56.20
2022-09-07T12:46:34.729Z,56.70
2022-09-07T12:50:51.057Z,56.80
2022-09-07T12:54:42.912Z,55.40
2022-09-07T12:58:41.756Z,56.10
2022-09-07T13:02:43.442Z,56.50
2022-09-07T13:10:42.738Z,58.10
2022-09-07T13:14:27.763Z,57.50
2022-09-07T13:18:41.222Z,58.30
2022-09-07T13:22:37.389Z,58.00
2022-09-07T13:26:59.109Z,58.10
2022-09-07T13:30:56.139Z,56.80
2022-09-07T13:34:50.077Z,56.70
2022-09-07T13:38:35.321Z,57.90
2022-09-07T13:42:40.425Z,58.40
2022-09-07T13:46:27.904Z,58.80
2022-09-07T13:50:38.581Z,57.70
2022-09-07T13:54:27.622Z,57.20
2022-09-07T13:58:28.099Z,58.60
2022-09-07T14:02:29.421Z,58.10
2022-09-07T14:06:26.352Z,57.40
2022-09-07T14:10:14.728Z,57.10
2022-09-07T14:14:17.054Z,58.30
2022-09-07T14:18:31.749Z,58.20
2022-09-07T14:22:18.443Z,58.80
2022-09-07T14:26:25.785Z,59.10
2022-09-07T14:30:33.567Z,59.00
2022-09-07T14:34:20.084Z,59.10
2022-09-07T14:39:03.980Z,59.90
2022-09-07T14:42:25.693Z,58.20
2022-09-07T14:46:26.594Z,58.70
2022-09-07T14:50:25.773Z,58.70
2022-09-07T14:54:10.168Z,59.00
2022-09-07T14:58:16.640Z,58.80
2022-09-07T15:02:32.966Z,58.60
2022-09-07T15:11:32.979Z,58.70
2022-09-07T15:14:52.516Z,59.90
2022-09-07T15:18:56.080Z,59.90
2022-09-07T15:22:38.599Z,59.90
2022-09-07T15:30:34.505Z,59.80
2022-09-07T15:34:22.346Z,59.30
2022-09-07T15:46:16.207Z,59.30
2022-09-07T15:49:58.308Z,59.40
2022-09-07T15:57:56.871Z,59.50
2022-09-07T16:01:52.223Z,59.50
2022-09-07T16:05:35.028Z,59.40
2022-09-07T16:09:17.516Z,59.80
2022-09-07T16:13:02.231Z,59.90
2022-09-07T16:20:47.952Z,59.80
2022-09-07T16:24:35.666Z,60.00
2022-09-07T16:28:17.634Z,60.20
2022-09-07T16:36:04.610Z,60.50
2022-09-07T16:39:46.572Z,60.50
2022-09-07T16:43:28.666Z,60.30
2022-09-07T16:47:12.855Z,60.70
2022-09-07T16:51:01.066Z,60.70
2022-09-07T16:54:44.277Z,60.90
2022-09-07T16:58:36.535Z,60.90
2022-09-07T17:02:19.291Z,60.90
2022-09-07T17:06:02.273Z,61.00
2022-09-07T17:09:44.297Z,61.30
2022-09-07T17:13:26.575Z,61.40
2022-09-07T17:17:09.260Z,61.70
2022-09-07T17:20:56.665Z,61.80
2022-09-07T17:24:40.430Z,63.00
2022-09-07T17:28:22.384Z,62.90
2022-09-07T17:36:12.292Z,63.20
2022-09-07T17:39:54.456Z,63.40
2022-09-07T17:43:45.414Z,63.10
2022-09-07T17:47:30.410Z,64.80
2022-09-07T17:51:13.258Z,65.80
2022-09-07T17:54:56.131Z,67.30
2022-09-07T17:58:39.715Z,67.80
2022-09-07T18:02:21.842Z,68.20
2022-09-07T18:06:04.141Z,68.50
2022-09-07T18:09:47.131Z,68.90
2022-09-07T18:13:35.920Z,69.00
2022-09-07T18:17:19.210Z,69.10
2022-09-07T18:21:01.233Z,68.80
2022-09-07T18:24:43.259Z,71.00
2022-09-07T18:32:27.466Z,71.60
2022-09-07T18:36:11.808Z,72.30
2022-09-07T18:39:54.585Z,72.80
2022-09-07T18:43:39.101Z,73.30
2022-09-07T18:47:27.541Z,73.60
2022-09-07T18:51:10.837Z,74.00
2022-09-07T18:54:58.798Z,74.30
2022-09-07T18:58:41.975Z,75.70
2022-09-07T19:02:24.098Z,74.70
2022-09-07T19:06:10.083Z,74.90
2022-09-07T19:09:52.136Z,75.30
2022-09-07T19:13:35.377Z,75.40
2022-09-07T19:17:18.004Z,75.70
2022-09-07T19:21:08.498Z,75.90
2022-09-07T19:24:50.743Z,77.20
2022-09-07T19:28:33.236Z,76.30
2022-09-07T19:32:15.196Z,76.40
2022-09-07T19:35:57.306Z,76.50
2022-09-07T19:39:39.988Z,76.60
2022-09-07T19:43:22.097Z,76.70
2022-09-07T19:47:04.244Z,76.80
2022-09-07T19:50:47.007Z,76.80
2022-09-07T19:54:28.979Z,77.10
2022-09-07T19:58:12.717Z,77.20
2022-09-07T20:01:54.686Z,77.40
2022-09-07T20:05:42.845Z,77.60
2022-09-07T20:09:25.900Z,78.70
2022-09-07T20:13:08.203Z,77.90
2022-09-07T20:16:50.405Z,78.00
2022-09-07T20:20:34.635Z,78.20
2022-09-07T20:24:22.237Z,78.40
2022-09-07T20:28:04.234Z,78.70
2022-09-07T20:31:46.996Z,78.70
2022-09-07T20:35:31.167Z,78.80
2022-09-07T20:39:16.369Z,79.10
2022-09-07T20:42:58.984Z,79.10
2022-09-07T20:46:41.058Z,79.20
2022-09-07T20:50:23.112Z,79.30
2022-09-07T20:54:20.450Z,79.40
2022-09-07T20:58:03.303Z,81.50
2022-09-07T21:01:46.777Z,79.80
2022-09-07T21:05:28.999Z,80.40
2022-09-07T21:09:11.001Z,80.50
2022-09-07T21:13:33.982Z,80.80
2022-09-07T21:17:16.028Z,82.30
2022-09-07T21:21:18.745Z,80.40
2022-09-07T21:25:02.530Z,80.60
2022-09-07T21:28:44.649Z,80.80
2022-09-07T21:32:26.697Z,80.90
2022-09-07T21:36:11.487Z,81.20
2022-09-07T21:39:53.680Z,81.00
2022-09-07T21:43:35.833Z,81.00
2022-09-07T21:52:25.880Z,84.20
2022-09-07T21:56:11.719Z,82.30
2022-09-07T21:59:53.684Z,82.10
2022-09-07T22:03:35.704Z,81.80
2022-09-07T22:07:17.701Z,82.70
2022-09-07T22:11:12.066Z,82.60
2022-09-07T22:14:54.142Z,82.80
2022-09-07T22:18:38.048Z,82.10
2022-09-07T22:22:20.025Z,82.10
2022-09-07T22:26:02.077Z,82.20
2022-09-07T22:29:43.984Z,83.10
2022-09-07T22:33:26.156Z,82.50
2022-09-07T22:37:08.109Z,82.50
2022-09-07T22:40:50.243Z,82.40
2022-09-07T22:44:32.281Z,82.40
2022-09-07T22:48:14.231Z,82.40
2022-09-07T22:51:56.176Z,82.50
2022-09-07T22:55:39.376Z,82.50
2022-09-07T22:59:21.543Z,82.50
2022-09-07T23:03:05.303Z,82.60
2022-09-07T23:06:47.381Z,82.60
2022-09-07T23:10:29.421Z,82.80
2022-09-07T23:14:17.241Z,82.70
2022-09-07T23:23:02.381Z,84.10
2022-09-07T23:26:44.411Z,82.70
2022-09-07T23:30:26.443Z,82.60
2022-09-07T23:34:08.802Z,82.80
2022-09-07T23:37:50.704Z,83.20
2022-09-07T23:41:32.910Z,83.00
2022-09-07T23:45:15.368Z,83.00
2022-09-07T23:48:57.394Z,83.50
2022-09-07T23:52:39.403Z,84.20
2022-09-07T23:56:22.552Z,83.80
